New York, New York
Traffic Map
Current Weather Conditions
New York, New York
Overcast
Overcast
17°
Feels Like: 17°
Wind Chill: 17° Ceiling: 1900
Heat Index: 17° Visibility: 10mi
Dew Point: 12° Wind: 8mph
Humidity: 72% Direction: 80° (E)
Pressure: 30.4in Gusts: 22mph
Raw Report DataKNYC 291651Z AUTO 08007G19KT 020V120 10SM OVC019 17/12 A3040 RMK AO2 SLP284 T01670117
Traffic Incident Summary
Active as of:
Severity:
Category:
InformationThere was an issue retrieving the traffic information for this location. Please try a different location or try again shortly.
Advertisements
Track Severe Weather on mobile